Time;durP1;ratioP1;P1;durP2;ratioP2;P2;SDS_P1;SDS_P2;PMS_P1;PMS_P2;Temp;Humidity;BMP_temperature;BMP_pressure;BME280_temperature;BME280_humidity;BME280_pressure;Samples;Min_cycle;Max_cycle;Signal;HPM_P1;HPM_P2
2021/04/30 00:06:36;;;;;;;16.5;11.1;;;;;;;11.09;85.38574;97676.34;;;;
2021/04/30 00:16:39;;;;;;;18;15.6;;;;;;;10.81;87.69336;97672.63;;;;
2021/04/30 00:26:34;;;;;;;23.5;16.9;;;;;;;10.7;88.87402;97676.05;;;;
2021/04/30 00:36:32;;;;;;;19.7;16.2;;;;;;;10.74;89.07422;97677.77;;;;
2021/04/30 00:46:31;;;;;;;18;16.1;;;;;;;10.79;90.02832;97720.7;;;;
2021/04/30 00:56:30;;;;;;;28;19.1;;;;;;;11.1;90.58887;97769.61;;;;
2021/04/30 01:06:31;;;;;;;27.5;23.4;;;;;;;11.07;100;97781.02;;;;
2021/04/30 01:16:27;;;;;;;30.8;24.4;;;;;;;11.2;100;97789.19;;;;
2021/04/30 01:26:26;;;;;;;36.3;27.5;;;;;;;11.19;100;97793.79;;;;
2021/04/30 01:36:25;;;;;;;28.4;21.8;;;;;;;11.19;100;97782.2;;;;
2021/04/30 01:46:24;;;;;;;19.1;13.2;;;;;;;11.19;100;97782.2;;;;
2021/04/30 01:56:22;;;;;;;21.8;12.9;;;;;;;11.18;100;97770.63;;;;
2021/04/30 02:06:22;;;;;;;23.7;14.1;;;;;;;11.15;100;97759.71;;;;
2021/04/30 02:16:20;;;;;;;27.1;13.4;;;;;;;11.15;100;97760.5;;;;
2021/04/30 02:26:19;;;;;;;13.4;8.9;;;;;;;11.19;100;97774.91;;;;
2021/04/30 02:36:18;;;;;;;13;7.8;;;;;;;11.33;100;97788.91;;;;
2021/04/30 02:46:18;;;;;;;15.1;11.5;;;;;;;11.23;100;97767.73;;;;
2021/04/30 02:56:15;;;;;;;11.1;8.5;;;;;;;11.27;100;97784.05;;;;
2021/04/30 03:06:14;;;;;;;13.7;8.4;;;;;;;11.3;100;97786.08;;;;
2021/04/30 03:16:12;;;;;;;11.9;9.3;;;;;;;11.38;100;97796.02;;;;
2021/04/30 03:26:11;;;;;;;11;8.2;;;;;;;11.37;100;97806.02;;;;
2021/04/30 03:36:10;;;;;;;13.4;9.4;;;;;;;11.54;100;97810.45;;;;
2021/04/30 03:46:09;;;;;;;15.2;10.8;;;;;;;11.56;100;97824.39;;;;
2021/04/30 03:56:08;;;;;;;11.6;8.1;;;;;;;11.6;100;97834.2;;;;
2021/04/30 04:06:07;;;;;;;11.4;8.2;;;;;;;11.64;100;97845.13;;;;
2021/04/30 04:16:06;;;;;;;14.9;9.4;;;;;;;11.68;100;97856.84;;;;
2021/04/30 04:26:04;;;;;;;10.7;7.9;;;;;;;11.68;100;97867.63;;;;
2021/04/30 04:36:03;;;;;;;7.8;5.7;;;;;;;11.52;100;97878.23;;;;
2021/04/30 04:46:02;;;;;;;6.1;4.8;;;;;;;11.67;100;97876.84;;;;
2021/04/30 04:56:01;;;;;;;5.1;3.3;;;;;;;11.77;100;97889.96;;;;
2021/04/30 05:06:00;;;;;;;5.2;3.5;;;;;;;11.72;100;97909.08;;;;
2021/04/30 05:15:59;;;;;;;4.7;2.9;;;;;;;11.74;100;97914.13;;;;
2021/04/30 05:25:58;;;;;;;7.9;3.8;;;;;;;11.93;100;97931.44;;;;
2021/04/30 05:35:57;;;;;;;6.9;4.4;;;;;;;12.06;100;97948.47;;;;
2021/04/30 05:45:56;;;;;;;8;5.3;;;;;;;12.42;100;97947.8;;;;
2021/04/30 05:55:55;;;;;;;8.4;6.1;;;;;;;12.86;100;97956.97;;;;
2021/04/30 06:05:54;;;;;;;8.4;5.1;;;;;;;12.94;100;97950.67;;;;
2021/04/30 06:15:53;;;;;;;8.7;7.6;;;;;;;12.98;100;97960.45;;;;
2021/04/30 06:25:52;;;;;;;16.4;10.2;;;;;;;13.08;100;97983.59;;;;
2021/04/30 06:35:51;;;;;;;13.7;9.3;;;;;;;13.1;100;97998.38;;;;
2021/04/30 06:45:50;;;;;;;12.3;9.8;;;;;;;13.2;100;97993.63;;;;
2021/04/30 06:55:50;;;;;;;13;9.6;;;;;;;13.4;100;98008.95;;;;
2021/04/30 07:05:48;;;;;;;12.4;9.1;;;;;;;13.63;100;98012.78;;;;
2021/04/30 07:15:48;;;;;;;10.5;8.1;;;;;;;14.19;100;98021;;;;
2021/04/30 07:25:47;;;;;;;14.2;8.4;;;;;;;14.19;100;98015.58;;;;
2021/04/30 07:35:46;;;;;;;13.2;8.4;;;;;;;14.46;100;98017.52;;;;
2021/04/30 07:45:45;;;;;;;12.4;9.2;;;;;;;14.81;99.93945;98014.95;;;;
2021/04/30 07:55:44;;;;;;;14.2;8.5;;;;;;;14.73;95.51855;98019.41;;;;
2021/04/30 08:05:44;;;;;;;17.6;7.7;;;;;;;14.96;95.16211;98014.95;;;;
2021/04/30 08:15:43;;;;;;;12.1;8.5;;;;;;;15.28;91.4502;98031.23;;;;
2021/04/30 08:25:42;;;;;;;11.2;7.1;;;;;;;15.19;89.88574;98057.78;;;;
2021/04/30 08:35:42;;;;;;;10.7;8;;;;;;;15.3;88.58105;98051.48;;;;
2021/04/30 08:45:41;;;;;;;19.3;9.7;;;;;;;15.23;92.91504;98053.23;;;;
2021/04/30 08:55:41;;;;;;;11.6;7.5;;;;;;;16.01;89.75781;98062.07;;;;
2021/04/30 09:05:40;;;;;;;9.5;7.7;;;;;;;16.06;86.77246;98071.89;;;;
2021/04/30 09:15:39;;;;;;;10.4;7.4;;;;;;;16.16;84.63867;98087.64;;;;
2021/04/30 09:25:39;;;;;;;13.4;9.3;;;;;;;15.93;88.0459;98065.77;;;;
2021/04/30 09:35:38;;;;;;;11.4;7.7;;;;;;;16.49;83.02441;98082.49;;;;
2021/04/30 09:45:38;;;;;;;14.2;8.6;;;;;;;16.55;83.13867;98072.95;;;;
2021/04/30 09:55:37;;;;;;;10.2;6.7;;;;;;;16.3;80.44238;98068.91;;;;
2021/04/30 10:05:37;;;;;;;8.2;5.9;;;;;;;16.61;80.38477;98070.72;;;;
2021/04/30 10:15:36;;;;;;;6.9;4.6;;;;;;;17.13;77.95996;98061.95;;;;
2021/04/30 10:25:36;;;;;;;9.2;6.6;;;;;;;17.49;75.54785;98072.28;;;;
2021/04/30 10:35:36;;;;;;;11.2;5.7;;;;;;;17.41;72.27539;98076.05;;;;
2021/04/30 10:45:35;;;;;;;8.7;5.1;;;;;;;17.07;71.83203;98056.04;;;;
2021/04/30 10:55:35;;;;;;;9.3;6;;;;;;;16.62;72.91504;98055.98;;;;
2021/04/30 11:05:34;;;;;;;7;5.2;;;;;;;16.99;70.30273;98042.65;;;;
2021/04/30 11:15:34;;;;;;;5.5;3.2;;;;;;;17.3;65.50391;98055.23;;;;
2021/04/30 11:25:33;;;;;;;5.8;3.9;;;;;;;17.56;66.95898;98047.89;;;;
2021/04/30 11:35:33;;;;;;;7.2;3.6;;;;;;;17.41;64.4043;98050.75;;;;
2021/04/30 11:45:32;;;;;;;8.7;3.7;;;;;;;17.78;67.89844;98040.04;;;;
2021/04/30 11:55:32;;;;;;;8.1;5.6;;;;;;;17.74;66.4668;98041.92;;;;
2021/04/30 12:05:32;;;;;;;6.3;4.5;;;;;;;17.93;63.93945;98031.7;;;;
2021/04/30 12:15:31;;;;;;;5.7;3;;;;;;;18.1;61.3584;98033.88;;;;
2021/04/30 12:25:31;;;;;;;6.4;3.6;;;;;;;18.33;63.44238;98038.43;;;;
2021/04/30 12:35:30;;;;;;;7.5;4.6;;;;;;;18.31;60.76367;98022.45;;;;
2021/04/30 12:45:30;;;;;;;5.3;2.9;;;;;;;18.24;59.17285;98007.94;;;;
2021/04/30 12:55:31;;;;;;;7.8;3.5;;;;;;;18.25;58.55078;97999.39;;;;
2021/04/30 13:05:29;;;;;;;6.3;2.9;;;;;;;18.25;58.27344;98013.03;;;;
2021/04/30 13:15:29;;;;;;;7.8;3.9;;;;;;;18.45;59.59473;98003.52;;;;
2021/04/30 13:25:31;;;;;;;6;3.6;;;;;;;18.5;56.42285;97991.49;;;;
2021/04/30 13:35:28;;;;;;;6.4;3.2;;;;;;;18.88;53.26563;97988.37;;;;
2021/04/30 13:45:28;;;;;;;4.9;3.1;;;;;;;18.95;52.55566;97977.51;;;;
2021/04/30 13:55:28;;;;;;;5.2;3;;;;;;;19.32;52.96973;97976.64;;;;
2021/04/30 14:05:28;;;;;;;7.5;3.4;;;;;;;19.32;52.39063;97966.5;;;;
2021/04/30 14:15:28;;;;;;;4.5;3;;;;;;;19.72;49.98828;97976.53;;;;
2021/04/30 14:25:28;;;;;;;5.1;3.1;;;;;;;19.85;47.68945;97968.8;;;;
2021/04/30 14:35:27;;;;;;;7;2.8;;;;;;;19.81;45.96484;97968.78;;;;
2021/04/30 14:45:27;;;;;;;5.6;3.2;;;;;;;20.1;44.86621;97962.26;;;;
2021/04/30 14:55:27;;;;;;;6.3;3.8;;;;;;;20.27;42.7041;97973.67;;;;
2021/04/30 15:05:27;;;;;;;6;3.6;;;;;;;20.13;43.00488;97968.15;;;;
2021/04/30 15:15:27;;;;;;;4.8;2.5;;;;;;;22.37;36.67188;97965.74;;;;
2021/04/30 15:25:27;;;;;;;5.4;3;;;;;;;23.76;33.03027;97960.77;;;;
2021/04/30 15:35:27;;;;;;;8.5;3.2;;;;;;;24.62;31.09961;97954.98;;;;
2021/04/30 15:45:28;;;;;;;6;2.6;;;;;;;25.41;29.17871;97950.58;;;;
2021/04/30 15:55:29;;;;;;;9.2;4;;;;;;;25.03;29.61426;97950.05;;;;
2021/04/30 16:05:29;;;;;;;9.7;4.3;;;;;;;24.17;29.59277;97929.63;;;;
2021/04/30 16:15:30;;;;;;;5.8;2.9;;;;;;;23.07;30.93262;97939;;;;
2021/04/30 16:25:30;;;;;;;6.8;3.1;;;;;;;20.86;35.18066;97948.38;;;;
2021/04/30 16:35:31;;;;;;;6;3.5;;;;;;;19.75;37.86719;97937.48;;;;
2021/04/30 16:45:31;;;;;;;8.3;4.8;;;;;;;19.14;39.46777;97929.28;;;;
2021/04/30 16:55:31;;;;;;;6.5;3.9;;;;;;;18.6;39.4668;97938.98;;;;
2021/04/30 17:05:31;;;;;;;5.8;3.4;;;;;;;17.96;40.89453;97962.8;;;;
2021/04/30 17:15:30;;;;;;;10.4;4.2;;;;;;;17.65;42.45215;97967.83;;;;
2021/04/30 17:25:32;;;;;;;9;5.1;;;;;;;17.42;43.35645;97967.88;;;;
2021/04/30 17:35:30;;;;;;;12.6;7.2;;;;;;;16.52;47.56348;97969.48;;;;
2021/04/30 17:45:30;;;;;;;11.5;6.2;;;;;;;15.68;48.09473;97976.72;;;;
2021/04/30 17:55:29;;;;;;;12.2;8.6;;;;;;;14.78;49.83496;97994.75;;;;
2021/04/30 18:05:28;;;;;;;12;8.7;;;;;;;14.03;55.13574;98010.88;;;;
2021/04/30 18:15:29;;;;;;;25.2;19.2;;;;;;;13.56;56.80078;98026.11;;;;
2021/04/30 18:25:26;;;;;;;13.6;9.9;;;;;;;13.22;57.18066;98030.08;;;;
2021/04/30 18:35:26;;;;;;;14.5;9;;;;;;;12.93;57.30176;98044.55;;;;
2021/04/30 18:45:25;;;;;;;15.5;9.2;;;;;;;12.79;57.2373;98054.88;;;;
2021/04/30 18:55:24;;;;;;;15.2;10.4;;;;;;;12.6;58.0459;98071.6;;;;
2021/04/30 19:05:23;;;;;;;13.2;8.7;;;;;;;12.3;60.49902;98077.45;;;;
2021/04/30 19:15:23;;;;;;;15.4;10.4;;;;;;;11.99;63.3125;98078.64;;;;
2021/04/30 19:25:21;;;;;;;13.3;10.5;;;;;;;11.63;62.95117;98088.38;;;;
2021/04/30 19:35:21;;;;;;;16;12.8;;;;;;;11.15;65.53711;98089.53;;;;
2021/04/30 19:45:20;;;;;;;14.1;12.5;;;;;;;10.75;67.13965;98099.02;;;;
2021/04/30 19:55:17;;;;;;;21.7;16;;;;;;;10.56;66.36523;98097.44;;;;
2021/04/30 20:05:17;;;;;;;24;19.2;;;;;;;10.25;67.4248;98096.03;;;;
2021/04/30 20:15:14;;;;;;;20.3;15.9;;;;;;;10.24;69.76465;98092.54;;;;
2021/04/30 20:25:13;;;;;;;19.5;15.5;;;;;;;10.25;80.03027;98117.58;;;;
2021/04/30 20:35:12;;;;;;;24.1;14.6;;;;;;;10.11;79.80469;98123.88;;;;
2021/04/30 20:45:10;;;;;;;17.1;13.7;;;;;;;9.92;81.47852;98118;;;;
2021/04/30 20:55:09;;;;;;;15.9;12.7;;;;;;;9.75;79.16211;98130.63;;;;
2021/04/30 21:05:08;;;;;;;18.2;12.3;;;;;;;9.7;77.08301;98130.77;;;;
2021/04/30 21:15:06;;;;;;;14.2;12.5;;;;;;;9.68;75.52734;98128.4;;;;
2021/04/30 21:25:04;;;;;;;14.4;10.2;;;;;;;9.59;73.95703;98139.13;;;;
2021/04/30 21:35:03;;;;;;;17.6;11.1;;;;;;;9.55;74.40039;98156.19;;;;
2021/04/30 21:45:02;;;;;;;13.6;9.7;;;;;;;9.81;72.88867;98165.16;;;;
2021/04/30 21:55:00;;;;;;;14.7;9.7;;;;;;;9.94;70.31543;98177.69;;;;
2021/04/30 22:05:01;;;;;;;10.5;8.2;;;;;;;9.82;70.73535;98192.87;;;;
2021/04/30 22:14:57;;;;;;;16.1;11.2;;;;;;;9.76;71.41504;98202.95;;;;
2021/04/30 22:24:58;;;;;;;16.2;10.8;;;;;;;9.59;71.87012;98205.58;;;;
2021/04/30 22:34:54;;;;;;;16.8;11.5;;;;;;;9.21;73.03516;98207.12;;;;
2021/04/30 22:44:53;;;;;;;13;11;;;;;;;8.73;76.01172;98204.27;;;;
2021/04/30 22:54:51;;;;;;;15.2;13;;;;;;;8.48;80.77344;98203.75;;;;
2021/04/30 23:04:50;;;;;;;14.9;10.7;;;;;;;8.38;80.33887;98208.55;;;;
2021/04/30 23:14:48;;;;;;;13.1;11.7;;;;;;;8.26;80.4082;98206.34;;;;
2021/04/30 23:24:46;;;;;;;14.4;12.9;;;;;;;8.1;83.62695;98192.47;;;;
2021/04/30 23:34:45;;;;;;;14.1;11.5;;;;;;;7.95;83.91113;98198.14;;;;
2021/04/30 23:44:43;;;;;;;15.4;11.8;;;;;;;7.74;85.39063;98206.91;;;;
2021/04/30 23:54:41;;;;;;;15.2;11.9;;;;;;;7.62;86.61816;98195.87;;;;
